sensor_id;sensor_type;location;lat;lon;timestamp;P1;durP1;ratioP1;P2;durP2;ratioP2
9374;SDS011;4727;51.202;6.344;2023-03-17T00:02:07;2.23;;;2.13;;
9374;SDS011;4727;51.202;6.344;2023-03-17T00:04:40;3.20;;;2.47;;
9374;SDS011;4727;51.202;6.344;2023-03-17T00:07:06;3.10;;;2.40;;
9374;SDS011;4727;51.202;6.344;2023-03-17T00:09:40;2.40;;;2.20;;
9374;SDS011;4727;51.202;6.344;2023-03-17T00:12:09;2.97;;;2.77;;
9374;SDS011;4727;51.202;6.344;2023-03-17T00:14:41;3.00;;;2.30;;
9374;SDS011;4727;51.202;6.344;2023-03-17T00:17:19;2.60;;;2.40;;
9374;SDS011;4727;51.202;6.344;2023-03-17T00:19:45;2.80;;;2.60;;
9374;SDS011;4727;51.202;6.344;2023-03-17T00:22:15;2.83;;;2.63;;
9374;SDS011;4727;51.202;6.344;2023-03-17T00:24:51;3.43;;;2.77;;
9374;SDS011;4727;51.202;6.344;2023-03-17T00:27:20;3.00;;;2.50;;
9374;SDS011;4727;51.202;6.344;2023-03-17T00:29:48;3.13;;;2.93;;
9374;SDS011;4727;51.202;6.344;2023-03-17T00:32:23;2.67;;;2.33;;
9374;SDS011;4727;51.202;6.344;2023-03-17T00:34:56;3.03;;;2.50;;
9374;SDS011;4727;51.202;6.344;2023-03-17T00:37:24;4.17;;;2.80;;
9374;SDS011;4727;51.202;6.344;2023-03-17T00:39:53;3.33;;;2.67;;
9374;SDS011;4727;51.202;6.344;2023-03-17T00:42:20;4.17;;;2.50;;
9374;SDS011;4727;51.202;6.344;2023-03-17T00:44:52;2.90;;;2.47;;
9374;SDS011;4727;51.202;6.344;2023-03-17T00:47:18;3.63;;;2.87;;
9374;SDS011;4727;51.202;6.344;2023-03-17T00:49:49;3.63;;;2.90;;
9374;SDS011;4727;51.202;6.344;2023-03-17T00:52:18;4.70;;;2.97;;
9374;SDS011;4727;51.202;6.344;2023-03-17T00:54:44;6.23;;;2.90;;
9374;SDS011;4727;51.202;6.344;2023-03-17T00:57:13;3.40;;;2.97;;
9374;SDS011;4727;51.202;6.344;2023-03-17T00:59:39;3.43;;;3.20;;
9374;SDS011;4727;51.202;6.344;2023-03-17T01:02:10;2.87;;;2.67;;
9374;SDS011;4727;51.202;6.344;2023-03-17T01:04:37;3.93;;;3.20;;
9374;SDS011;4727;51.202;6.344;2023-03-17T01:07:08;3.93;;;3.30;;
9374;SDS011;4727;51.202;6.344;2023-03-17T01:09:38;3.87;;;3.27;;
9374;SDS011;4727;51.202;6.344;2023-03-17T01:28:51;4.77;;;3.30;;
9374;SDS011;4727;51.202;6.344;2023-03-17T01:31:17;5.83;;;3.80;;
9374;SDS011;4727;51.202;6.344;2023-03-17T01:33:44;3.87;;;3.40;;
9374;SDS011;4727;51.202;6.344;2023-03-17T01:36:11;4.40;;;3.87;;
9374;SDS011;4727;51.202;6.344;2023-03-17T01:38:37;4.43;;;3.50;;
9374;SDS011;4727;51.202;6.344;2023-03-17T01:41:03;4.17;;;3.77;;
9374;SDS011;4727;51.202;6.344;2023-03-17T01:43:29;5.10;;;3.63;;
9374;SDS011;4727;51.202;6.344;2023-03-17T01:51:10;4.43;;;3.73;;
9374;SDS011;4727;51.202;6.344;2023-03-17T01:53:38;5.00;;;3.73;;
9374;SDS011;4727;51.202;6.344;2023-03-17T01:56:05;5.97;;;3.77;;
9374;SDS011;4727;51.202;6.344;2023-03-17T01:58:32;4.53;;;3.60;;
9374;SDS011;4727;51.202;6.344;2023-03-17T02:00:58;3.87;;;3.57;;
9374;SDS011;4727;51.202;6.344;2023-03-17T02:03:25;4.60;;;3.80;;
9374;SDS011;4727;51.202;6.344;2023-03-17T02:05:52;5.40;;;3.77;;
9374;SDS011;4727;51.202;6.344;2023-03-17T02:08:18;4.50;;;3.50;;
9374;SDS011;4727;51.202;6.344;2023-03-17T02:10:45;6.00;;;4.10;;
9374;SDS011;4727;51.202;6.344;2023-03-17T02:13:13;4.70;;;3.77;;
9374;SDS011;4727;51.202;6.344;2023-03-17T02:18:07;4.47;;;3.70;;
9374;SDS011;4727;51.202;6.344;2023-03-17T02:22:59;5.23;;;3.37;;
9374;SDS011;4727;51.202;6.344;2023-03-17T02:25:27;5.00;;;4.03;;
9374;SDS011;4727;51.202;6.344;2023-03-17T02:27:55;6.73;;;3.93;;
9374;SDS011;4727;51.202;6.344;2023-03-17T02:30:24;4.77;;;3.57;;
9374;SDS011;4727;51.202;6.344;2023-03-17T02:32:50;5.60;;;3.87;;
9374;SDS011;4727;51.202;6.344;2023-03-17T02:35:16;5.53;;;4.10;;
9374;SDS011;4727;51.202;6.344;2023-03-17T02:37:46;4.47;;;4.03;;
9374;SDS011;4727;51.202;6.344;2023-03-17T02:40:12;5.13;;;3.53;;
9374;SDS011;4727;51.202;6.344;2023-03-17T02:42:39;4.57;;;4.13;;
9374;SDS011;4727;51.202;6.344;2023-03-17T02:45:05;6.43;;;4.13;;
9374;SDS011;4727;51.202;6.344;2023-03-17T02:47:31;5.27;;;3.83;;
9374;SDS011;4727;51.202;6.344;2023-03-17T02:49:57;5.37;;;4.50;;
9374;SDS011;4727;51.202;6.344;2023-03-17T02:52:24;6.07;;;4.17;;
9374;SDS011;4727;51.202;6.344;2023-03-17T02:54:50;5.13;;;4.57;;
9374;SDS011;4727;51.202;6.344;2023-03-17T02:57:16;4.90;;;4.37;;
9374;SDS011;4727;51.202;6.344;2023-03-17T02:59:42;6.03;;;4.27;;
9374;SDS011;4727;51.202;6.344;2023-03-17T03:02:08;4.90;;;4.40;;
9374;SDS011;4727;51.202;6.344;2023-03-17T03:04:35;6.37;;;4.67;;
9374;SDS011;4727;51.202;6.344;2023-03-17T03:07:01;4.83;;;3.70;;
9374;SDS011;4727;51.202;6.344;2023-03-17T03:09:28;4.67;;;4.27;;
9374;SDS011;4727;51.202;6.344;2023-03-17T03:11:53;5.87;;;4.00;;
9374;SDS011;4727;51.202;6.344;2023-03-17T03:14:20;4.90;;;4.50;;
9374;SDS011;4727;51.202;6.344;2023-03-17T03:16:46;5.77;;;4.43;;
9374;SDS011;4727;51.202;6.344;2023-03-17T03:19:12;4.13;;;3.83;;
9374;SDS011;4727;51.202;6.344;2023-03-17T03:21:38;6.77;;;4.47;;
9374;SDS011;4727;51.202;6.344;2023-03-17T03:24:04;4.47;;;3.83;;
9374;SDS011;4727;51.202;6.344;2023-03-17T03:26:31;5.63;;;4.63;;
9374;SDS011;4727;51.202;6.344;2023-03-17T03:28:57;6.03;;;4.47;;
9374;SDS011;4727;51.202;6.344;2023-03-17T03:31:24;6.80;;;4.30;;
9374;SDS011;4727;51.202;6.344;2023-03-17T03:33:50;4.67;;;4.13;;
9374;SDS011;4727;51.202;6.344;2023-03-17T03:36:16;5.33;;;4.50;;
9374;SDS011;4727;51.202;6.344;2023-03-17T03:38:43;4.60;;;4.10;;
9374;SDS011;4727;51.202;6.344;2023-03-17T03:41:09;4.93;;;4.20;;
9374;SDS011;4727;51.202;6.344;2023-03-17T03:43:35;5.23;;;4.40;;
9374;SDS011;4727;51.202;6.344;2023-03-17T03:46:02;5.10;;;4.60;;
9374;SDS011;4727;51.202;6.344;2023-03-17T03:48:28;4.43;;;4.03;;
9374;SDS011;4727;51.202;6.344;2023-03-17T03:50:55;5.97;;;4.70;;
9374;SDS011;4727;51.202;6.344;2023-03-17T03:53:21;5.70;;;4.60;;
9374;SDS011;4727;51.202;6.344;2023-03-17T03:55:47;5.27;;;4.77;;
9374;SDS011;4727;51.202;6.344;2023-03-17T03:58:13;4.90;;;4.50;;
9374;SDS011;4727;51.202;6.344;2023-03-17T04:00:39;5.93;;;4.47;;
9374;SDS011;4727;51.202;6.344;2023-03-17T04:03:05;4.53;;;4.13;;
9374;SDS011;4727;51.202;6.344;2023-03-17T04:05:31;6.00;;;4.30;;
9374;SDS011;4727;51.202;6.344;2023-03-17T04:07:57;6.47;;;4.67;;
9374;SDS011;4727;51.202;6.344;2023-03-17T04:10:23;5.13;;;3.90;;
9374;SDS011;4727;51.202;6.344;2023-03-17T04:12:49;4.77;;;4.27;;
9374;SDS011;4727;51.202;6.344;2023-03-17T04:15:16;5.53;;;4.30;;
9374;SDS011;4727;51.202;6.344;2023-03-17T04:17:43;5.47;;;4.37;;
9374;SDS011;4727;51.202;6.344;2023-03-17T04:20:09;4.93;;;4.43;;
9374;SDS011;4727;51.202;6.344;2023-03-17T04:22:35;4.70;;;4.30;;
9374;SDS011;4727;51.202;6.344;2023-03-17T04:25:01;7.53;;;4.60;;
9374;SDS011;4727;51.202;6.344;2023-03-17T04:27:27;5.43;;;4.47;;
9374;SDS011;4727;51.202;6.344;2023-03-17T04:29:53;4.97;;;4.40;;
9374;SDS011;4727;51.202;6.344;2023-03-17T04:32:19;5.73;;;4.60;;
9374;SDS011;4727;51.202;6.344;2023-03-17T04:34:45;5.53;;;4.00;;
9374;SDS011;4727;51.202;6.344;2023-03-17T04:37:11;7.83;;;4.70;;
9374;SDS011;4727;51.202;6.344;2023-03-17T04:39:37;5.97;;;4.97;;
9374;SDS011;4727;51.202;6.344;2023-03-17T04:42:04;5.80;;;4.33;;
9374;SDS011;4727;51.202;6.344;2023-03-17T04:44:30;5.60;;;4.33;;
9374;SDS011;4727;51.202;6.344;2023-03-17T04:46:56;5.77;;;4.67;;
9374;SDS011;4727;51.202;6.344;2023-03-17T04:49:22;4.77;;;4.20;;
9374;SDS011;4727;51.202;6.344;2023-03-17T04:51:48;4.53;;;4.13;;
9374;SDS011;4727;51.202;6.344;2023-03-17T04:54:14;4.57;;;4.17;;
9374;SDS011;4727;51.202;6.344;2023-03-17T04:56:40;4.63;;;4.17;;
9374;SDS011;4727;51.202;6.344;2023-03-17T04:59:06;6.73;;;4.43;;
9374;SDS011;4727;51.202;6.344;2023-03-17T05:01:33;5.03;;;4.07;;
9374;SDS011;4727;51.202;6.344;2023-03-17T05:03:59;5.17;;;3.70;;
9374;SDS011;4727;51.202;6.344;2023-03-17T05:06:25;4.70;;;4.20;;
9374;SDS011;4727;51.202;6.344;2023-03-17T05:08:51;5.20;;;4.33;;
9374;SDS011;4727;51.202;6.344;2023-03-17T05:11:17;4.80;;;4.30;;
9374;SDS011;4727;51.202;6.344;2023-03-17T05:13:43;6.73;;;4.23;;
9374;SDS011;4727;51.202;6.344;2023-03-17T05:16:09;5.20;;;4.20;;
9374;SDS011;4727;51.202;6.344;2023-03-17T05:18:35;4.83;;;4.33;;
9374;SDS011;4727;51.202;6.344;2023-03-17T05:21:02;4.93;;;4.43;;
9374;SDS011;4727;51.202;6.344;2023-03-17T05:23:28;5.70;;;4.40;;
9374;SDS011;4727;51.202;6.344;2023-03-17T05:25:54;5.93;;;4.50;;
9374;SDS011;4727;51.202;6.344;2023-03-17T05:28:20;4.80;;;4.40;;
9374;SDS011;4727;51.202;6.344;2023-03-17T05:30:47;7.63;;;4.50;;
9374;SDS011;4727;51.202;6.344;2023-03-17T05:33:13;5.43;;;4.07;;
9374;SDS011;4727;51.202;6.344;2023-03-17T05:35:40;4.73;;;4.13;;
9374;SDS011;4727;51.202;6.344;2023-03-17T05:38:06;5.07;;;4.37;;
9374;SDS011;4727;51.202;6.344;2023-03-17T05:40:33;4.90;;;4.40;;
9374;SDS011;4727;51.202;6.344;2023-03-17T05:42:59;5.27;;;4.33;;
9374;SDS011;4727;51.202;6.344;2023-03-17T05:45:25;5.73;;;4.70;;
9374;SDS011;4727;51.202;6.344;2023-03-17T05:47:52;6.03;;;4.33;;
9374;SDS011;4727;51.202;6.344;2023-03-17T05:50:18;5.33;;;4.70;;
9374;SDS011;4727;51.202;6.344;2023-03-17T05:52:44;4.40;;;4.00;;
9374;SDS011;4727;51.202;6.344;2023-03-17T05:55:11;5.97;;;4.80;;
9374;SDS011;4727;51.202;6.344;2023-03-17T05:57:37;5.00;;;4.60;;
9374;SDS011;4727;51.202;6.344;2023-03-17T06:00:03;4.80;;;4.30;;
9374;SDS011;4727;51.202;6.344;2023-03-17T06:02:30;4.77;;;4.20;;
9374;SDS011;4727;51.202;6.344;2023-03-17T06:04:56;5.00;;;4.43;;
9374;SDS011;4727;51.202;6.344;2023-03-17T06:07:22;8.10;;;4.77;;
9374;SDS011;4727;51.202;6.344;2023-03-17T06:09:48;4.73;;;4.27;;
9374;SDS011;4727;51.202;6.344;2023-03-17T06:12:14;5.33;;;4.23;;
9374;SDS011;4727;51.202;6.344;2023-03-17T06:14:40;5.57;;;4.20;;
9374;SDS011;4727;51.202;6.344;2023-03-17T06:17:06;6.50;;;3.83;;
9374;SDS011;4727;51.202;6.344;2023-03-17T06:19:32;6.33;;;4.53;;
9374;SDS011;4727;51.202;6.344;2023-03-17T06:21:58;5.13;;;4.10;;
9374;SDS011;4727;51.202;6.344;2023-03-17T06:24:24;6.07;;;4.40;;
9374;SDS011;4727;51.202;6.344;2023-03-17T06:26:50;5.33;;;4.83;;
9374;SDS011;4727;51.202;6.344;2023-03-17T06:29:17;4.57;;;4.13;;
9374;SDS011;4727;51.202;6.344;2023-03-17T06:31:43;6.23;;;4.77;;
9374;SDS011;4727;51.202;6.344;2023-03-17T06:34:14;9.13;;;4.73;;
9374;SDS011;4727;51.202;6.344;2023-03-17T06:36:40;6.40;;;4.50;;
9374;SDS011;4727;51.202;6.344;2023-03-17T06:39:07;6.17;;;4.57;;
9374;SDS011;4727;51.202;6.344;2023-03-17T06:41:33;5.40;;;4.23;;
9374;SDS011;4727;51.202;6.344;2023-03-17T06:43:59;6.03;;;4.60;;
9374;SDS011;4727;51.202;6.344;2023-03-17T06:46:26;4.97;;;4.47;;
9374;SDS011;4727;51.202;6.344;2023-03-17T06:48:52;4.57;;;4.17;;
9374;SDS011;4727;51.202;6.344;2023-03-17T06:51:18;5.00;;;4.57;;
9374;SDS011;4727;51.202;6.344;2023-03-17T06:53:44;4.70;;;4.30;;
9374;SDS011;4727;51.202;6.344;2023-03-17T06:56:10;7.67;;;4.60;;
9374;SDS011;4727;51.202;6.344;2023-03-17T06:58:35;4.30;;;3.90;;
9374;SDS011;4727;51.202;6.344;2023-03-17T07:01:01;4.53;;;4.13;;
9374;SDS011;4727;51.202;6.344;2023-03-17T07:03:28;7.33;;;4.40;;
9374;SDS011;4727;51.202;6.344;2023-03-17T07:05:55;8.03;;;4.27;;
9374;SDS011;4727;51.202;6.344;2023-03-17T07:08:21;5.87;;;4.03;;
9374;SDS011;4727;51.202;6.344;2023-03-17T07:10:47;4.27;;;3.97;;
9374;SDS011;4727;51.202;6.344;2023-03-17T07:13:13;6.10;;;4.57;;
9374;SDS011;4727;51.202;6.344;2023-03-17T07:15:39;8.10;;;4.43;;
9374;SDS011;4727;51.202;6.344;2023-03-17T07:18:05;7.30;;;4.50;;
9374;SDS011;4727;51.202;6.344;2023-03-17T07:20:31;7.47;;;4.10;;
9374;SDS011;4727;51.202;6.344;2023-03-17T07:22:57;4.27;;;3.77;;
9374;SDS011;4727;51.202;6.344;2023-03-17T07:25:23;7.13;;;4.27;;
9374;SDS011;4727;51.202;6.344;2023-03-17T07:49:50;5.10;;;3.80;;
9374;SDS011;4727;51.202;6.344;2023-03-17T07:52:17;4.93;;;3.53;;
9374;SDS011;4727;51.202;6.344;2023-03-17T07:54:43;5.27;;;3.57;;
9374;SDS011;4727;51.202;6.344;2023-03-17T07:57:09;4.27;;;3.20;;
9374;SDS011;4727;51.202;6.344;2023-03-17T07:59:35;5.20;;;3.57;;
9374;SDS011;4727;51.202;6.344;2023-03-17T08:02:02;4.00;;;3.57;;
9374;SDS011;4727;51.202;6.344;2023-03-17T08:04:28;5.17;;;3.50;;
9374;SDS011;4727;51.202;6.344;2023-03-17T08:06:54;9.17;;;3.87;;
9374;SDS011;4727;51.202;6.344;2023-03-17T08:09:21;9.50;;;3.60;;
9374;SDS011;4727;51.202;6.344;2023-03-17T08:11:47;5.60;;;3.87;;
9374;SDS011;4727;51.202;6.344;2023-03-17T08:14:13;3.83;;;3.43;;
9374;SDS011;4727;51.202;6.344;2023-03-17T08:16:39;5.43;;;3.60;;
9374;SDS011;4727;51.202;6.344;2023-03-17T08:19:05;7.67;;;3.60;;
9374;SDS011;4727;51.202;6.344;2023-03-17T08:21:31;5.73;;;4.00;;
9374;SDS011;4727;51.202;6.344;2023-03-17T08:23:57;6.20;;;4.17;;
9374;SDS011;4727;51.202;6.344;2023-03-17T08:26:24;6.93;;;3.43;;
9374;SDS011;4727;51.202;6.344;2023-03-17T08:28:50;6.53;;;4.20;;
9374;SDS011;4727;51.202;6.344;2023-03-17T08:31:18;4.67;;;4.00;;
9374;SDS011;4727;51.202;6.344;2023-03-17T08:33:45;4.53;;;3.60;;
9374;SDS011;4727;51.202;6.344;2023-03-17T08:36:12;4.47;;;3.57;;
9374;SDS011;4727;51.202;6.344;2023-03-17T08:38:39;5.93;;;3.63;;
9374;SDS011;4727;51.202;6.344;2023-03-17T08:41:06;7.50;;;4.97;;
9374;SDS011;4727;51.202;6.344;2023-03-17T08:43:33;7.33;;;3.70;;
9374;SDS011;4727;51.202;6.344;2023-03-17T08:46:04;6.37;;;3.83;;
9374;SDS011;4727;51.202;6.344;2023-03-17T08:48:31;6.03;;;4.03;;
9374;SDS011;4727;51.202;6.344;2023-03-17T08:50:57;7.67;;;3.30;;
9374;SDS011;4727;51.202;6.344;2023-03-17T08:53:23;5.03;;;3.40;;
9374;SDS011;4727;51.202;6.344;2023-03-17T08:55:50;9.03;;;3.90;;
9374;SDS011;4727;51.202;6.344;2023-03-17T08:58:16;5.37;;;3.43;;
9374;SDS011;4727;51.202;6.344;2023-03-17T09:00:46;6.50;;;4.17;;
9374;SDS011;4727;51.202;6.344;2023-03-17T09:03:13;4.57;;;3.70;;
9374;SDS011;4727;51.202;6.344;2023-03-17T09:05:39;4.40;;;3.93;;
9374;SDS011;4727;51.202;6.344;2023-03-17T09:08:06;5.43;;;3.33;;
9374;SDS011;4727;51.202;6.344;2023-03-17T09:10:33;5.27;;;3.60;;
9374;SDS011;4727;51.202;6.344;2023-03-17T09:12:59;7.03;;;3.57;;
9374;SDS011;4727;51.202;6.344;2023-03-17T09:15:28;4.30;;;3.47;;
9374;SDS011;4727;51.202;6.344;2023-03-17T09:17:54;12.40;;;3.80;;
9374;SDS011;4727;51.202;6.344;2023-03-17T09:20:20;7.40;;;3.33;;
9374;SDS011;4727;51.202;6.344;2023-03-17T09:22:46;8.50;;;3.40;;
9374;SDS011;4727;51.202;6.344;2023-03-17T09:25:13;6.83;;;3.63;;
9374;SDS011;4727;51.202;6.344;2023-03-17T09:27:38;3.70;;;3.33;;
9374;SDS011;4727;51.202;6.344;2023-03-17T09:30:05;6.30;;;2.90;;
9374;SDS011;4727;51.202;6.344;2023-03-17T09:32:31;5.33;;;3.27;;
9374;SDS011;4727;51.202;6.344;2023-03-17T09:34:57;3.07;;;2.80;;
9374;SDS011;4727;51.202;6.344;2023-03-17T09:37:23;5.30;;;3.30;;
9374;SDS011;4727;51.202;6.344;2023-03-17T09:39:49;4.07;;;3.10;;
9374;SDS011;4727;51.202;6.344;2023-03-17T09:42:19;8.33;;;3.53;;
9374;SDS011;4727;51.202;6.344;2023-03-17T09:50:03;3.93;;;3.20;;
9374;SDS011;4727;51.202;6.344;2023-03-17T09:52:33;3.40;;;2.90;;
9374;SDS011;4727;51.202;6.344;2023-03-17T09:55:00;3.63;;;2.97;;
9374;SDS011;4727;51.202;6.344;2023-03-17T09:57:34;4.40;;;2.70;;
9374;SDS011;4727;51.202;6.344;2023-03-17T10:00:20;5.87;;;2.90;;
9374;SDS011;4727;51.202;6.344;2023-03-17T10:02:50;6.43;;;2.90;;
9374;SDS011;4727;51.202;6.344;2023-03-17T10:05:30;3.73;;;2.90;;
9374;SDS011;4727;51.202;6.344;2023-03-17T10:08:04;8.70;;;3.30;;
9374;SDS011;4727;51.202;6.344;2023-03-17T10:10:41;3.43;;;3.13;;
9374;SDS011;4727;51.202;6.344;2023-03-17T10:15:42;5.33;;;3.70;;
9374;SDS011;4727;51.202;6.344;2023-03-17T10:18:12;5.67;;;3.30;;
9374;SDS011;4727;51.202;6.344;2023-03-17T10:20:45;6.40;;;3.27;;
9374;SDS011;4727;51.202;6.344;2023-03-17T10:23:14;6.27;;;3.47;;
9374;SDS011;4727;51.202;6.344;2023-03-17T10:25:42;4.07;;;2.63;;
9374;SDS011;4727;51.202;6.344;2023-03-17T10:30:37;4.07;;;3.10;;
9374;SDS011;4727;51.202;6.344;2023-03-17T10:33:04;5.10;;;2.90;;
9374;SDS011;4727;51.202;6.344;2023-03-17T10:35:33;4.67;;;3.20;;
9374;SDS011;4727;51.202;6.344;2023-03-17T10:38:00;4.50;;;2.90;;
9374;SDS011;4727;51.202;6.344;2023-03-17T10:40:28;3.87;;;2.80;;
9374;SDS011;4727;51.202;6.344;2023-03-17T10:43:03;4.83;;;3.37;;
9374;SDS011;4727;51.202;6.344;2023-03-17T10:45:35;4.90;;;3.10;;
9374;SDS011;4727;51.202;6.344;2023-03-17T10:48:03;6.43;;;2.90;;
9374;SDS011;4727;51.202;6.344;2023-03-17T10:50:33;5.07;;;3.10;;
9374;SDS011;4727;51.202;6.344;2023-03-17T10:53:04;6.33;;;3.03;;
9374;SDS011;4727;51.202;6.344;2023-03-17T10:58:10;5.33;;;3.20;;
9374;SDS011;4727;51.202;6.344;2023-03-17T11:00:38;3.33;;;2.73;;
9374;SDS011;4727;51.202;6.344;2023-03-17T11:03:22;4.87;;;3.23;;
9374;SDS011;4727;51.202;6.344;2023-03-17T11:05:55;4.60;;;3.00;;
9374;SDS011;4727;51.202;6.344;2023-03-17T11:08:22;3.77;;;3.30;;
9374;SDS011;4727;51.202;6.344;2023-03-17T11:10:52;3.30;;;3.00;;
9374;SDS011;4727;51.202;6.344;2023-03-17T11:13:19;6.77;;;3.03;;
9374;SDS011;4727;51.202;6.344;2023-03-17T11:15:47;4.73;;;2.87;;
9374;SDS011;4727;51.202;6.344;2023-03-17T11:18:18;3.30;;;2.57;;
9374;SDS011;4727;51.202;6.344;2023-03-17T11:20:54;3.30;;;2.73;;
9374;SDS011;4727;51.202;6.344;2023-03-17T11:23:27;3.90;;;3.00;;
9374;SDS011;4727;51.202;6.344;2023-03-17T11:28:39;3.10;;;2.80;;
9374;SDS011;4727;51.202;6.344;2023-03-17T11:36:18;5.67;;;3.30;;
9374;SDS011;4727;51.202;6.344;2023-03-17T11:38:59;3.60;;;2.57;;
9374;SDS011;4727;51.202;6.344;2023-03-17T11:41:31;3.97;;;3.23;;
9374;SDS011;4727;51.202;6.344;2023-03-17T11:46:33;3.67;;;3.00;;
9374;SDS011;4727;51.202;6.344;2023-03-17T11:56:46;5.97;;;2.60;;
9374;SDS011;4727;51.202;6.344;2023-03-17T11:59:16;5.57;;;2.93;;
9374;SDS011;4727;51.202;6.344;2023-03-17T12:01:53;2.60;;;2.40;;
9374;SDS011;4727;51.202;6.344;2023-03-17T12:04:24;5.67;;;2.70;;
9374;SDS011;4727;51.202;6.344;2023-03-17T12:06:55;5.43;;;2.90;;
9374;SDS011;4727;51.202;6.344;2023-03-17T12:09:41;3.77;;;2.80;;
9374;SDS011;4727;51.202;6.344;2023-03-17T12:12:09;3.27;;;2.50;;
9374;SDS011;4727;51.202;6.344;2023-03-17T12:19:40;4.10;;;3.00;;
9374;SDS011;4727;51.202;6.344;2023-03-17T12:22:16;5.70;;;2.90;;
9374;SDS011;4727;51.202;6.344;2023-03-17T12:24:48;7.13;;;3.13;;
9374;SDS011;4727;51.202;6.344;2023-03-17T12:30:00;3.80;;;2.80;;
9374;SDS011;4727;51.202;6.344;2023-03-17T12:32:36;5.67;;;3.17;;
9374;SDS011;4727;51.202;6.344;2023-03-17T12:35:18;5.53;;;2.93;;
9374;SDS011;4727;51.202;6.344;2023-03-17T12:37:47;4.53;;;3.10;;
9374;SDS011;4727;51.202;6.344;2023-03-17T12:40:16;5.97;;;3.00;;
9374;SDS011;4727;51.202;6.344;2023-03-17T12:55:44;2.83;;;2.57;;
9374;SDS011;4727;51.202;6.344;2023-03-17T12:58:20;5.77;;;3.23;;
9374;SDS011;4727;51.202;6.344;2023-03-17T13:00:48;4.53;;;2.50;;
9374;SDS011;4727;51.202;6.344;2023-03-17T13:03:21;4.90;;;2.70;;
9374;SDS011;4727;51.202;6.344;2023-03-17T13:05:49;7.07;;;2.90;;
9374;SDS011;4727;51.202;6.344;2023-03-17T13:08:20;3.23;;;2.63;;
9374;SDS011;4727;51.202;6.344;2023-03-17T13:10:47;5.17;;;2.77;;
9374;SDS011;4727;51.202;6.344;2023-03-17T13:13:22;5.90;;;2.90;;
9374;SDS011;4727;51.202;6.344;2023-03-17T13:16:00;5.60;;;2.83;;
9374;SDS011;4727;51.202;6.344;2023-03-17T13:23:33;6.43;;;4.27;;
9374;SDS011;4727;51.202;6.344;2023-03-17T13:26:00;10.23;;;4.20;;
9374;SDS011;4727;51.202;6.344;2023-03-17T13:28:39;15.50;;;4.53;;
9374;SDS011;4727;51.202;6.344;2023-03-17T13:31:10;3.60;;;2.80;;
9374;SDS011;4727;51.202;6.344;2023-03-17T13:33:45;6.30;;;3.37;;
9374;SDS011;4727;51.202;6.344;2023-03-17T13:36:16;5.83;;;3.10;;
9374;SDS011;4727;51.202;6.344;2023-03-17T13:48:52;5.00;;;2.93;;
9374;SDS011;4727;51.202;6.344;2023-03-17T13:51:23;5.13;;;2.95;;
9374;SDS011;4727;51.202;6.344;2023-03-17T13:56:16;4.13;;;2.80;;
9374;SDS011;4727;51.202;6.344;2023-03-17T14:01:31;5.40;;;2.67;;
9374;SDS011;4727;51.202;6.344;2023-03-17T14:04:01;3.47;;;2.37;;
9374;SDS011;4727;51.202;6.344;2023-03-17T14:06:27;3.87;;;2.60;;
9374;SDS011;4727;51.202;6.344;2023-03-17T14:08:58;4.60;;;2.67;;
9374;SDS011;4727;51.202;6.344;2023-03-17T14:11:26;4.23;;;2.70;;
9374;SDS011;4727;51.202;6.344;2023-03-17T14:14:13;8.27;;;3.10;;
9374;SDS011;4727;51.202;6.344;2023-03-17T14:16:42;3.53;;;2.73;;
9374;SDS011;4727;51.202;6.344;2023-03-17T14:19:17;4.87;;;2.60;;
9374;SDS011;4727;51.202;6.344;2023-03-17T14:21:44;6.30;;;3.10;;
9374;SDS011;4727;51.202;6.344;2023-03-17T14:24:16;4.90;;;2.73;;
9374;SDS011;4727;51.202;6.344;2023-03-17T14:26:42;4.70;;;2.70;;
9374;SDS011;4727;51.202;6.344;2023-03-17T14:29:08;3.90;;;2.70;;
9374;SDS011;4727;51.202;6.344;2023-03-17T14:31:38;4.80;;;3.20;;
9374;SDS011;4727;51.202;6.344;2023-03-17T14:34:09;4.30;;;2.83;;
9374;SDS011;4727;51.202;6.344;2023-03-17T14:36:37;4.13;;;2.23;;
9374;SDS011;4727;51.202;6.344;2023-03-17T14:39:03;6.13;;;2.53;;
9374;SDS011;4727;51.202;6.344;2023-03-17T14:41:31;5.50;;;3.00;;
9374;SDS011;4727;51.202;6.344;2023-03-17T14:43:58;3.70;;;3.10;;
9374;SDS011;4727;51.202;6.344;2023-03-17T14:46:32;2.87;;;2.57;;
9374;SDS011;4727;51.202;6.344;2023-03-17T14:48:59;7.47;;;3.30;;
9374;SDS011;4727;51.202;6.344;2023-03-17T14:51:27;3.93;;;2.67;;
9374;SDS011;4727;51.202;6.344;2023-03-17T14:54:02;3.70;;;2.97;;
9374;SDS011;4727;51.202;6.344;2023-03-17T14:56:34;4.60;;;2.73;;
9374;SDS011;4727;51.202;6.344;2023-03-17T14:59:05;6.03;;;2.83;;
9374;SDS011;4727;51.202;6.344;2023-03-17T15:01:40;5.60;;;3.93;;
9374;SDS011;4727;51.202;6.344;2023-03-17T15:06:54;5.50;;;3.43;;
9374;SDS011;4727;51.202;6.344;2023-03-17T15:09:23;4.60;;;2.93;;
9374;SDS011;4727;51.202;6.344;2023-03-17T15:11:51;7.00;;;2.87;;
9374;SDS011;4727;51.202;6.344;2023-03-17T15:14:25;5.87;;;2.87;;
9374;SDS011;4727;51.202;6.344;2023-03-17T15:16:53;7.00;;;2.83;;
9374;SDS011;4727;51.202;6.344;2023-03-17T15:19:39;5.23;;;2.87;;
9374;SDS011;4727;51.202;6.344;2023-03-17T15:24:56;4.57;;;3.10;;
9374;SDS011;4727;51.202;6.344;2023-03-17T15:27:23;3.20;;;2.80;;
9374;SDS011;4727;51.202;6.344;2023-03-17T15:29:49;5.27;;;3.00;;
9374;SDS011;4727;51.202;6.344;2023-03-17T15:32:16;3.13;;;2.83;;
9374;SDS011;4727;51.202;6.344;2023-03-17T15:34:46;3.90;;;2.70;;
9374;SDS011;4727;51.202;6.344;2023-03-17T15:37:12;7.10;;;2.70;;
9374;SDS011;4727;51.202;6.344;2023-03-17T15:39:39;2.63;;;1.80;;
9374;SDS011;4727;51.202;6.344;2023-03-17T15:42:05;5.63;;;2.87;;
9374;SDS011;4727;51.202;6.344;2023-03-17T15:44:32;3.07;;;2.73;;
9374;SDS011;4727;51.202;6.344;2023-03-17T15:46:58;6.33;;;2.80;;
9374;SDS011;4727;51.202;6.344;2023-03-17T15:49:24;8.53;;;2.83;;
9374;SDS011;4727;51.202;6.344;2023-03-17T15:51:50;5.50;;;2.93;;
9374;SDS011;4727;51.202;6.344;2023-03-17T15:54:16;6.93;;;3.20;;
9374;SDS011;4727;51.202;6.344;2023-03-17T15:56:42;6.40;;;2.53;;
9374;SDS011;4727;51.202;6.344;2023-03-17T15:59:10;5.67;;;2.57;;
9374;SDS011;4727;51.202;6.344;2023-03-17T16:01:36;4.27;;;2.37;;
9374;SDS011;4727;51.202;6.344;2023-03-17T16:04:04;6.87;;;2.50;;
9374;SDS011;4727;51.202;6.344;2023-03-17T16:06:30;6.87;;;2.70;;
9374;SDS011;4727;51.202;6.344;2023-03-17T16:08:56;6.13;;;2.97;;
9374;SDS011;4727;51.202;6.344;2023-03-17T16:11:22;6.20;;;2.77;;
9374;SDS011;4727;51.202;6.344;2023-03-17T16:13:52;7.63;;;3.10;;
9374;SDS011;4727;51.202;6.344;2023-03-17T16:16:19;9.13;;;2.90;;
9374;SDS011;4727;51.202;6.344;2023-03-17T16:18:46;10.83;;;3.10;;
9374;SDS011;4727;51.202;6.344;2023-03-17T16:21:13;12.23;;;3.23;;
9374;SDS011;4727;51.202;6.344;2023-03-17T16:23:39;7.50;;;2.97;;
9374;SDS011;4727;51.202;6.344;2023-03-17T16:26:05;13.27;;;3.77;;
9374;SDS011;4727;51.202;6.344;2023-03-17T16:28:31;10.23;;;3.33;;
9374;SDS011;4727;51.202;6.344;2023-03-17T16:30:58;11.73;;;2.83;;
9374;SDS011;4727;51.202;6.344;2023-03-17T16:33:37;8.17;;;2.80;;
9374;SDS011;4727;51.202;6.344;2023-03-17T16:36:03;12.50;;;3.47;;
9374;SDS011;4727;51.202;6.344;2023-03-17T16:38:30;8.33;;;3.10;;
9374;SDS011;4727;51.202;6.344;2023-03-17T16:41:00;7.37;;;2.80;;
9374;SDS011;4727;51.202;6.344;2023-03-17T16:43:30;3.90;;;2.83;;
9374;SDS011;4727;51.202;6.344;2023-03-17T16:45:57;5.27;;;2.73;;
9374;SDS011;4727;51.202;6.344;2023-03-17T16:48:24;4.83;;;2.63;;
9374;SDS011;4727;51.202;6.344;2023-03-17T16:50:50;4.10;;;2.53;;
9374;SDS011;4727;51.202;6.344;2023-03-17T16:53:16;4.73;;;2.33;;
9374;SDS011;4727;51.202;6.344;2023-03-17T16:55:42;2.33;;;2.00;;
9374;SDS011;4727;51.202;6.344;2023-03-17T17:00:38;4.00;;;2.10;;
9374;SDS011;4727;51.202;6.344;2023-03-17T17:03:04;2.90;;;2.40;;
9374;SDS011;4727;51.202;6.344;2023-03-17T17:05:30;4.67;;;2.80;;
9374;SDS011;4727;51.202;6.344;2023-03-17T17:07:56;2.57;;;2.37;;
9374;SDS011;4727;51.202;6.344;2023-03-17T17:10:23;4.20;;;2.60;;
9374;SDS011;4727;51.202;6.344;2023-03-17T17:12:50;5.30;;;3.77;;
9374;SDS011;4727;51.202;6.344;2023-03-17T17:15:16;2.40;;;2.20;;
9374;SDS011;4727;51.202;6.344;2023-03-17T17:18:25;2.70;;;2.40;;
9374;SDS011;4727;51.202;6.344;2023-03-17T17:20:33;3.00;;;2.70;;
9374;SDS011;4727;51.202;6.344;2023-03-17T17:23:00;3.03;;;2.60;;
9374;SDS011;4727;51.202;6.344;2023-03-17T17:25:26;5.23;;;2.70;;
9374;SDS011;4727;51.202;6.344;2023-03-17T17:27:53;4.97;;;2.93;;
9374;SDS011;4727;51.202;6.344;2023-03-17T17:30:20;3.47;;;3.00;;